sensor_id;sensor_type;location;lat;lon;timestamp;temperature;humidity
3005;DHT22;1512;51.486;6.610;2023-12-20T00:03:49;7.60;99.90
3005;DHT22;1512;51.486;6.610;2023-12-20T00:07:58;7.60;99.90
3005;DHT22;1512;51.486;6.610;2023-12-20T00:12:07;7.50;99.90
3005;DHT22;1512;51.486;6.610;2023-12-20T00:16:16;7.40;99.90
3005;DHT22;1512;51.486;6.610;2023-12-20T00:20:24;7.40;99.90
3005;DHT22;1512;51.486;6.610;2023-12-20T00:24:33;7.40;99.90
3005;DHT22;1512;51.486;6.610;2023-12-20T00:28:42;7.30;99.90
3005;DHT22;1512;51.486;6.610;2023-12-20T00:32:50;7.30;99.90
3005;DHT22;1512;51.486;6.610;2023-12-20T00:36:59;7.30;99.90
3005;DHT22;1512;51.486;6.610;2023-12-20T00:41:08;7.30;99.90
3005;DHT22;1512;51.486;6.610;2023-12-20T00:45:16;7.40;99.90
3005;DHT22;1512;51.486;6.610;2023-12-20T00:49:25;7.30;99.90
3005;DHT22;1512;51.486;6.610;2023-12-20T00:53:34;7.40;99.90
3005;DHT22;1512;51.486;6.610;2023-12-20T00:57:43;7.40;99.90
3005;DHT22;1512;51.486;6.610;2023-12-20T01:01:52;7.40;99.90
3005;DHT22;1512;51.486;6.610;2023-12-20T01:06:01;7.40;99.90
3005;DHT22;1512;51.486;6.610;2023-12-20T01:10:10;7.40;99.90
3005;DHT22;1512;51.486;6.610;2023-12-20T01:14:18;7.40;99.90
3005;DHT22;1512;51.486;6.610;2023-12-20T01:18:27;7.40;99.90
3005;DHT22;1512;51.486;6.610;2023-12-20T01:22:36;7.40;99.90
3005;DHT22;1512;51.486;6.610;2023-12-20T01:26:44;7.30;99.90
3005;DHT22;1512;51.486;6.610;2023-12-20T01:30:53;7.30;99.90
3005;DHT22;1512;51.486;6.610;2023-12-20T01:35:02;7.20;99.90
3005;DHT22;1512;51.486;6.610;2023-12-20T01:39:11;7.20;99.90
3005;DHT22;1512;51.486;6.610;2023-12-20T01:43:21;7.10;99.90
3005;DHT22;1512;51.486;6.610;2023-12-20T01:47:31;7.00;99.90
3005;DHT22;1512;51.486;6.610;2023-12-20T01:51:40;7.00;99.90
3005;DHT22;1512;51.486;6.610;2023-12-20T01:55:50;7.00;99.90
3005;DHT22;1512;51.486;6.610;2023-12-20T02:00:00;6.90;99.90
3005;DHT22;1512;51.486;6.610;2023-12-20T02:04:11;6.90;99.90
3005;DHT22;1512;51.486;6.610;2023-12-20T02:08:26;6.80;99.90
3005;DHT22;1512;51.486;6.610;2023-12-20T02:12:35;6.80;99.90
3005;DHT22;1512;51.486;6.610;2023-12-20T02:16:44;6.70;99.90
3005;DHT22;1512;51.486;6.610;2023-12-20T02:20:52;6.60;99.90
3005;DHT22;1512;51.486;6.610;2023-12-20T02:25:01;6.60;99.90
3005;DHT22;1512;51.486;6.610;2023-12-20T02:29:10;6.50;99.90
3005;DHT22;1512;51.486;6.610;2023-12-20T02:33:19;6.50;99.90
3005;DHT22;1512;51.486;6.610;2023-12-20T02:37:27;6.50;99.90
3005;DHT22;1512;51.486;6.610;2023-12-20T02:41:36;6.40;99.90
3005;DHT22;1512;51.486;6.610;2023-12-20T02:45:44;6.40;99.90
3005;DHT22;1512;51.486;6.610;2023-12-20T02:49:53;6.30;99.90
3005;DHT22;1512;51.486;6.610;2023-12-20T02:54:02;6.30;99.90
3005;DHT22;1512;51.486;6.610;2023-12-20T02:58:11;6.20;99.90
3005;DHT22;1512;51.486;6.610;2023-12-20T03:02:19;6.20;99.90
3005;DHT22;1512;51.486;6.610;2023-12-20T03:06:28;6.30;99.90
3005;DHT22;1512;51.486;6.610;2023-12-20T03:10:56;6.30;99.90
3005;DHT22;1512;51.486;6.610;2023-12-20T03:15:05;6.30;99.90
3005;DHT22;1512;51.486;6.610;2023-12-20T03:19:16;6.30;99.90
3005;DHT22;1512;51.486;6.610;2023-12-20T03:23:25;6.30;99.90
3005;DHT22;1512;51.486;6.610;2023-12-20T03:27:39;6.30;99.90
3005;DHT22;1512;51.486;6.610;2023-12-20T03:31:47;6.30;99.90
3005;DHT22;1512;51.486;6.610;2023-12-20T03:35:56;6.30;99.90
3005;DHT22;1512;51.486;6.610;2023-12-20T03:40:05;6.20;99.90
3005;DHT22;1512;51.486;6.610;2023-12-20T03:44:14;6.20;99.90
3005;DHT22;1512;51.486;6.610;2023-12-20T03:48:22;6.20;99.90
3005;DHT22;1512;51.486;6.610;2023-12-20T03:52:31;6.20;99.90
3005;DHT22;1512;51.486;6.610;2023-12-20T03:56:40;6.10;99.90
3005;DHT22;1512;51.486;6.610;2023-12-20T04:00:48;6.10;99.90
3005;DHT22;1512;51.486;6.610;2023-12-20T04:04:57;6.10;99.90
3005;DHT22;1512;51.486;6.610;2023-12-20T04:09:06;6.00;99.90
3005;DHT22;1512;51.486;6.610;2023-12-20T04:13:16;6.00;99.90
3005;DHT22;1512;51.486;6.610;2023-12-20T04:17:26;6.00;99.90
3005;DHT22;1512;51.486;6.610;2023-12-20T04:21:34;6.00;99.90
3005;DHT22;1512;51.486;6.610;2023-12-20T04:25:43;6.00;99.90
3005;DHT22;1512;51.486;6.610;2023-12-20T04:29:52;6.00;99.90
3005;DHT22;1512;51.486;6.610;2023-12-20T04:34:00;6.00;99.90
3005;DHT22;1512;51.486;6.610;2023-12-20T04:38:09;6.00;99.90
3005;DHT22;1512;51.486;6.610;2023-12-20T04:42:18;6.00;99.90
3005;DHT22;1512;51.486;6.610;2023-12-20T04:46:27;6.00;99.90
3005;DHT22;1512;51.486;6.610;2023-12-20T04:50:35;5.90;99.90
3005;DHT22;1512;51.486;6.610;2023-12-20T04:55:03;5.90;99.90
3005;DHT22;1512;51.486;6.610;2023-12-20T04:59:12;5.90;99.90
3005;DHT22;1512;51.486;6.610;2023-12-20T05:03:21;5.90;99.90
3005;DHT22;1512;51.486;6.610;2023-12-20T05:07:30;5.90;99.90
3005;DHT22;1512;51.486;6.610;2023-12-20T05:11:39;5.90;99.90
3005;DHT22;1512;51.486;6.610;2023-12-20T05:15:48;5.90;99.90
3005;DHT22;1512;51.486;6.610;2023-12-20T05:19:56;5.90;99.90
3005;DHT22;1512;51.486;6.610;2023-12-20T05:24:05;6.00;99.90
3005;DHT22;1512;51.486;6.610;2023-12-20T05:28:14;6.00;99.90
3005;DHT22;1512;51.486;6.610;2023-12-20T05:32:24;6.10;99.90
3005;DHT22;1512;51.486;6.610;2023-12-20T05:36:33;6.10;99.90
3005;DHT22;1512;51.486;6.610;2023-12-20T05:40:41;6.10;99.90
3005;DHT22;1512;51.486;6.610;2023-12-20T05:44:50;6.20;99.90
3005;DHT22;1512;51.486;6.610;2023-12-20T05:49:00;6.20;99.90
3005;DHT22;1512;51.486;6.610;2023-12-20T05:53:10;6.20;99.90
3005;DHT22;1512;51.486;6.610;2023-12-20T05:57:18;6.20;99.90
3005;DHT22;1512;51.486;6.610;2023-12-20T06:01:27;6.20;99.90
3005;DHT22;1512;51.486;6.610;2023-12-20T06:05:36;6.20;99.90
3005;DHT22;1512;51.486;6.610;2023-12-20T06:09:44;6.30;99.90
3005;DHT22;1512;51.486;6.610;2023-12-20T06:13:53;6.30;99.90
3005;DHT22;1512;51.486;6.610;2023-12-20T06:18:02;6.30;99.90
3005;DHT22;1512;51.486;6.610;2023-12-20T06:22:11;6.40;99.90
3005;DHT22;1512;51.486;6.610;2023-12-20T06:26:19;6.40;99.90
3005;DHT22;1512;51.486;6.610;2023-12-20T06:30:28;6.40;99.90
3005;DHT22;1512;51.486;6.610;2023-12-20T06:34:37;6.40;99.90
3005;DHT22;1512;51.486;6.610;2023-12-20T06:38:46;6.40;99.90
3005;DHT22;1512;51.486;6.610;2023-12-20T06:42:54;6.40;99.90
3005;DHT22;1512;51.486;6.610;2023-12-20T06:47:05;6.50;99.90
3005;DHT22;1512;51.486;6.610;2023-12-20T06:51:15;6.50;99.90
3005;DHT22;1512;51.486;6.610;2023-12-20T06:55:26;6.50;99.90
3005;DHT22;1512;51.486;6.610;2023-12-20T06:59:40;6.50;99.90
3005;DHT22;1512;51.486;6.610;2023-12-20T07:03:49;6.50;99.90
3005;DHT22;1512;51.486;6.610;2023-12-20T07:07:57;6.60;99.90
3005;DHT22;1512;51.486;6.610;2023-12-20T07:12:06;6.60;99.90
3005;DHT22;1512;51.486;6.610;2023-12-20T07:16:15;6.60;99.90
3005;DHT22;1512;51.486;6.610;2023-12-20T07:20:23;6.60;99.90
3005;DHT22;1512;51.486;6.610;2023-12-20T07:24:33;6.60;99.90
3005;DHT22;1512;51.486;6.610;2023-12-20T07:28:42;6.60;99.90
3005;DHT22;1512;51.486;6.610;2023-12-20T07:32:50;6.60;99.90
3005;DHT22;1512;51.486;6.610;2023-12-20T07:37:19;6.70;99.90
3005;DHT22;1512;51.486;6.610;2023-12-20T07:41:28;6.70;99.90
3005;DHT22;1512;51.486;6.610;2023-12-20T07:45:37;6.70;99.90
3005;DHT22;1512;51.486;6.610;2023-12-20T07:49:46;6.70;99.90
3005;DHT22;1512;51.486;6.610;2023-12-20T07:53:54;6.70;99.90
3005;DHT22;1512;51.486;6.610;2023-12-20T07:58:03;6.70;99.90
3005;DHT22;1512;51.486;6.610;2023-12-20T08:02:13;6.80;99.90
3005;DHT22;1512;51.486;6.610;2023-12-20T08:06:21;6.70;99.90
3005;DHT22;1512;51.486;6.610;2023-12-20T08:10:30;6.80;99.90
3005;DHT22;1512;51.486;6.610;2023-12-20T08:14:39;6.80;99.90
3005;DHT22;1512;51.486;6.610;2023-12-20T08:18:48;6.80;99.90
3005;DHT22;1512;51.486;6.610;2023-12-20T08:22:56;6.80;99.90
3005;DHT22;1512;51.486;6.610;2023-12-20T08:27:05;6.80;99.90
3005;DHT22;1512;51.486;6.610;2023-12-20T08:31:14;6.80;99.90
3005;DHT22;1512;51.486;6.610;2023-12-20T08:35:24;6.80;99.90
3005;DHT22;1512;51.486;6.610;2023-12-20T08:39:33;6.90;99.90
3005;DHT22;1512;51.486;6.610;2023-12-20T08:43:41;6.90;99.90
3005;DHT22;1512;51.486;6.610;2023-12-20T08:47:50;6.90;99.90
3005;DHT22;1512;51.486;6.610;2023-12-20T08:52:00;6.90;99.90
3005;DHT22;1512;51.486;6.610;2023-12-20T08:56:08;6.90;99.90
3005;DHT22;1512;51.486;6.610;2023-12-20T09:00:17;6.90;99.90
3005;DHT22;1512;51.486;6.610;2023-12-20T09:04:27;6.90;99.90
3005;DHT22;1512;51.486;6.610;2023-12-20T09:08:36;6.80;99.90
3005;DHT22;1512;51.486;6.610;2023-12-20T09:12:45;6.90;99.90
3005;DHT22;1512;51.486;6.610;2023-12-20T09:16:55;6.80;99.90
3005;DHT22;1512;51.486;6.610;2023-12-20T09:21:04;6.90;99.90
3005;DHT22;1512;51.486;6.610;2023-12-20T09:25:13;6.80;99.90
3005;DHT22;1512;51.486;6.610;2023-12-20T09:29:23;6.90;99.90
3005;DHT22;1512;51.486;6.610;2023-12-20T09:33:33;6.90;99.90
3005;DHT22;1512;51.486;6.610;2023-12-20T09:37:42;6.90;99.90
3005;DHT22;1512;51.486;6.610;2023-12-20T09:42:03;6.90;99.90
3005;DHT22;1512;51.486;6.610;2023-12-20T09:46:13;6.90;99.90
3005;DHT22;1512;51.486;6.610;2023-12-20T09:50:23;7.00;99.90
3005;DHT22;1512;51.486;6.610;2023-12-20T09:54:32;7.00;99.90
3005;DHT22;1512;51.486;6.610;2023-12-20T09:58:41;7.00;99.90
3005;DHT22;1512;51.486;6.610;2023-12-20T10:02:58;7.10;99.90
3005;DHT22;1512;51.486;6.610;2023-12-20T10:07:06;7.10;99.90
3005;DHT22;1512;51.486;6.610;2023-12-20T10:11:16;7.20;99.90
3005;DHT22;1512;51.486;6.610;2023-12-20T10:15:24;7.20;99.90
3005;DHT22;1512;51.486;6.610;2023-12-20T10:19:52;7.30;99.90
3005;DHT22;1512;51.486;6.610;2023-12-20T10:24:01;7.30;99.90
3005;DHT22;1512;51.486;6.610;2023-12-20T10:28:14;7.40;99.90
3005;DHT22;1512;51.486;6.610;2023-12-20T10:32:26;7.40;99.90
3005;DHT22;1512;51.486;6.610;2023-12-20T10:36:35;7.40;99.90
3005;DHT22;1512;51.486;6.610;2023-12-20T10:40:46;7.40;99.90
3005;DHT22;1512;51.486;6.610;2023-12-20T10:44:54;7.40;99.90
3005;DHT22;1512;51.486;6.610;2023-12-20T10:49:05;7.40;99.90
3005;DHT22;1512;51.486;6.610;2023-12-20T10:53:16;7.40;99.90
3005;DHT22;1512;51.486;6.610;2023-12-20T10:57:26;7.40;99.90
3005;DHT22;1512;51.486;6.610;2023-12-20T11:01:38;7.40;99.90
3005;DHT22;1512;51.486;6.610;2023-12-20T11:06:03;7.40;99.90
3005;DHT22;1512;51.486;6.610;2023-12-20T11:10:43;7.40;99.90
3005;DHT22;1512;51.486;6.610;2023-12-20T11:14:52;7.40;99.90
3005;DHT22;1512;51.486;6.610;2023-12-20T11:19:06;7.40;99.90
3005;DHT22;1512;51.486;6.610;2023-12-20T11:23:15;7.50;99.90
3005;DHT22;1512;51.486;6.610;2023-12-20T11:27:24;7.50;99.90
3005;DHT22;1512;51.486;6.610;2023-12-20T11:31:39;7.60;99.90
3005;DHT22;1512;51.486;6.610;2023-12-20T11:35:46;7.60;99.90
3005;DHT22;1512;51.486;6.610;2023-12-20T11:40:05;7.70;99.90
3005;DHT22;1512;51.486;6.610;2023-12-20T11:44:17;7.70;99.90
3005;DHT22;1512;51.486;6.610;2023-12-20T11:48:26;7.70;99.90
3005;DHT22;1512;51.486;6.610;2023-12-20T11:52:35;7.60;99.90
3005;DHT22;1512;51.486;6.610;2023-12-20T11:56:45;7.70;99.90
3005;DHT22;1512;51.486;6.610;2023-12-20T12:00:55;7.70;99.90
3005;DHT22;1512;51.486;6.610;2023-12-20T12:05:05;7.70;99.90
3005;DHT22;1512;51.486;6.610;2023-12-20T12:09:14;7.70;99.90
3005;DHT22;1512;51.486;6.610;2023-12-20T12:13:22;7.80;99.90
3005;DHT22;1512;51.486;6.610;2023-12-20T12:17:56;7.80;99.90
3005;DHT22;1512;51.486;6.610;2023-12-20T12:22:06;7.80;99.90
3005;DHT22;1512;51.486;6.610;2023-12-20T12:26:18;7.80;99.90
3005;DHT22;1512;51.486;6.610;2023-12-20T12:30:27;7.80;99.90
3005;DHT22;1512;51.486;6.610;2023-12-20T12:34:38;7.90;99.90
3005;DHT22;1512;51.486;6.610;2023-12-20T12:38:48;7.90;99.90
3005;DHT22;1512;51.486;6.610;2023-12-20T12:42:57;7.90;99.90
3005;DHT22;1512;51.486;6.610;2023-12-20T12:47:05;7.90;99.90
3005;DHT22;1512;51.486;6.610;2023-12-20T12:51:14;7.80;99.90
3005;DHT22;1512;51.486;6.610;2023-12-20T12:55:23;7.80;99.90
3005;DHT22;1512;51.486;6.610;2023-12-20T12:59:32;7.80;99.90
3005;DHT22;1512;51.486;6.610;2023-12-20T13:03:42;7.80;99.90
3005;DHT22;1512;51.486;6.610;2023-12-20T13:07:51;7.80;99.90
3005;DHT22;1512;51.486;6.610;2023-12-20T13:12:20;7.70;99.90
3005;DHT22;1512;51.486;6.610;2023-12-20T13:16:29;7.70;99.90
3005;DHT22;1512;51.486;6.610;2023-12-20T13:20:38;7.70;99.90
3005;DHT22;1512;51.486;6.610;2023-12-20T13:24:48;7.60;99.90
3005;DHT22;1512;51.486;6.610;2023-12-20T13:28:56;7.60;99.90
3005;DHT22;1512;51.486;6.610;2023-12-20T13:33:05;7.60;99.90
3005;DHT22;1512;51.486;6.610;2023-12-20T13:37:14;7.60;99.90
3005;DHT22;1512;51.486;6.610;2023-12-20T13:41:23;7.60;99.90
3005;DHT22;1512;51.486;6.610;2023-12-20T13:45:32;7.60;99.90
3005;DHT22;1512;51.486;6.610;2023-12-20T13:49:40;7.60;99.90
3005;DHT22;1512;51.486;6.610;2023-12-20T13:53:49;7.60;99.90
3005;DHT22;1512;51.486;6.610;2023-12-20T13:57:58;7.60;99.90
3005;DHT22;1512;51.486;6.610;2023-12-20T14:02:07;7.60;99.90
3005;DHT22;1512;51.486;6.610;2023-12-20T14:06:16;7.60;99.90
3005;DHT22;1512;51.486;6.610;2023-12-20T14:10:25;7.60;99.90
3005;DHT22;1512;51.486;6.610;2023-12-20T14:14:34;7.60;99.90
3005;DHT22;1512;51.486;6.610;2023-12-20T14:18:43;7.60;99.90
3005;DHT22;1512;51.486;6.610;2023-12-20T14:22:52;7.60;99.90
3005;DHT22;1512;51.486;6.610;2023-12-20T14:27:00;7.60;99.90
3005;DHT22;1512;51.486;6.610;2023-12-20T14:31:09;7.60;99.90
3005;DHT22;1512;51.486;6.610;2023-12-20T14:35:19;7.60;99.90
3005;DHT22;1512;51.486;6.610;2023-12-20T14:39:27;7.60;99.90
3005;DHT22;1512;51.486;6.610;2023-12-20T14:43:36;7.60;99.90
3005;DHT22;1512;51.486;6.610;2023-12-20T14:47:45;7.60;99.90
3005;DHT22;1512;51.486;6.610;2023-12-20T14:51:56;7.70;99.90
3005;DHT22;1512;51.486;6.610;2023-12-20T14:56:06;7.70;99.90
3005;DHT22;1512;51.486;6.610;2023-12-20T15:00:15;7.70;99.90
3005;DHT22;1512;51.486;6.610;2023-12-20T15:04:24;7.70;99.90
3005;DHT22;1512;51.486;6.610;2023-12-20T15:08:35;7.70;99.90
3005;DHT22;1512;51.486;6.610;2023-12-20T15:12:44;7.80;99.90
3005;DHT22;1512;51.486;6.610;2023-12-20T15:16:57;7.80;99.90
3005;DHT22;1512;51.486;6.610;2023-12-20T15:21:06;7.80;99.90
3005;DHT22;1512;51.486;6.610;2023-12-20T15:25:15;7.80;99.90
3005;DHT22;1512;51.486;6.610;2023-12-20T15:29:25;7.80;99.90
3005;DHT22;1512;51.486;6.610;2023-12-20T15:33:34;7.80;99.90
3005;DHT22;1512;51.486;6.610;2023-12-20T15:37:43;7.80;99.90
3005;DHT22;1512;51.486;6.610;2023-12-20T15:41:53;7.80;99.90
3005;DHT22;1512;51.486;6.610;2023-12-20T15:46:21;7.80;99.90
3005;DHT22;1512;51.486;6.610;2023-12-20T15:50:30;7.80;99.90
3005;DHT22;1512;51.486;6.610;2023-12-20T15:54:39;7.80;99.90
3005;DHT22;1512;51.486;6.610;2023-12-20T15:58:49;7.80;99.90
3005;DHT22;1512;51.486;6.610;2023-12-20T16:02:59;7.80;99.90
3005;DHT22;1512;51.486;6.610;2023-12-20T16:07:10;7.80;99.90
3005;DHT22;1512;51.486;6.610;2023-12-20T16:11:19;7.80;99.90
3005;DHT22;1512;51.486;6.610;2023-12-20T16:15:27;7.80;99.90
3005;DHT22;1512;51.486;6.610;2023-12-20T16:19:36;7.80;99.90
3005;DHT22;1512;51.486;6.610;2023-12-20T16:23:45;7.80;99.90
3005;DHT22;1512;51.486;6.610;2023-12-20T16:27:54;7.80;99.90
3005;DHT22;1512;51.486;6.610;2023-12-20T16:32:02;7.80;99.90
3005;DHT22;1512;51.486;6.610;2023-12-20T16:36:11;7.80;99.90
3005;DHT22;1512;51.486;6.610;2023-12-20T16:40:20;7.80;99.90
3005;DHT22;1512;51.486;6.610;2023-12-20T16:44:30;7.80;99.90
3005;DHT22;1512;51.486;6.610;2023-12-20T16:48:39;7.80;99.90
3005;DHT22;1512;51.486;6.610;2023-12-20T16:52:48;7.80;99.90
3005;DHT22;1512;51.486;6.610;2023-12-20T16:56:58;7.80;99.90
3005;DHT22;1512;51.486;6.610;2023-12-20T17:01:07;7.80;99.90
3005;DHT22;1512;51.486;6.610;2023-12-20T17:05:17;7.80;99.90
3005;DHT22;1512;51.486;6.610;2023-12-20T17:09:26;7.80;99.90
3005;DHT22;1512;51.486;6.610;2023-12-20T17:13:36;7.80;99.90
3005;DHT22;1512;51.486;6.610;2023-12-20T17:17:46;7.80;99.90
3005;DHT22;1512;51.486;6.610;2023-12-20T17:21:55;7.80;99.90
3005;DHT22;1512;51.486;6.610;2023-12-20T17:26:04;7.80;99.90
3005;DHT22;1512;51.486;6.610;2023-12-20T17:30:19;7.80;99.90
3005;DHT22;1512;51.486;6.610;2023-12-20T17:34:27;7.80;99.90
3005;DHT22;1512;51.486;6.610;2023-12-20T17:38:36;7.80;99.90
3005;DHT22;1512;51.486;6.610;2023-12-20T17:42:46;7.80;99.90
3005;DHT22;1512;51.486;6.610;2023-12-20T17:46:56;7.80;99.90
3005;DHT22;1512;51.486;6.610;2023-12-20T17:51:05;7.80;99.90
3005;DHT22;1512;51.486;6.610;2023-12-20T17:55:33;7.80;99.90
3005;DHT22;1512;51.486;6.610;2023-12-20T17:59:41;7.80;99.90
3005;DHT22;1512;51.486;6.610;2023-12-20T18:03:50;7.80;99.90
3005;DHT22;1512;51.486;6.610;2023-12-20T18:07:59;7.80;99.90
3005;DHT22;1512;51.486;6.610;2023-12-20T18:12:08;7.80;99.90
3005;DHT22;1512;51.486;6.610;2023-12-20T18:16:18;7.80;99.90
3005;DHT22;1512;51.486;6.610;2023-12-20T18:24:48;7.90;99.90
3005;DHT22;1512;51.486;6.610;2023-12-20T18:28:57;7.90;99.90
3005;DHT22;1512;51.486;6.610;2023-12-20T18:33:06;7.90;99.90
3005;DHT22;1512;51.486;6.610;2023-12-20T18:37:15;7.90;99.90
3005;DHT22;1512;51.486;6.610;2023-12-20T18:41:24;7.90;99.90
3005;DHT22;1512;51.486;6.610;2023-12-20T18:45:32;7.90;99.90
3005;DHT22;1512;51.486;6.610;2023-12-20T18:49:41;7.90;99.90
3005;DHT22;1512;51.486;6.610;2023-12-20T18:53:50;8.00;99.90
3005;DHT22;1512;51.486;6.610;2023-12-20T18:58:01;8.00;99.90
3005;DHT22;1512;51.486;6.610;2023-12-20T19:02:09;8.00;99.90
3005;DHT22;1512;51.486;6.610;2023-12-20T19:06:20;8.00;99.90
3005;DHT22;1512;51.486;6.610;2023-12-20T19:10:28;8.00;99.90
3005;DHT22;1512;51.486;6.610;2023-12-20T19:14:37;7.90;99.90
3005;DHT22;1512;51.486;6.610;2023-12-20T19:18:46;7.90;99.90
3005;DHT22;1512;51.486;6.610;2023-12-20T19:22:54;7.90;99.90
3005;DHT22;1512;51.486;6.610;2023-12-20T19:27:03;8.00;99.90
3005;DHT22;1512;51.486;6.610;2023-12-20T19:31:12;8.00;99.90
3005;DHT22;1512;51.486;6.610;2023-12-20T19:35:22;8.10;99.90
3005;DHT22;1512;51.486;6.610;2023-12-20T19:39:31;8.10;99.90
3005;DHT22;1512;51.486;6.610;2023-12-20T19:43:39;8.10;99.90
3005;DHT22;1512;51.486;6.610;2023-12-20T19:47:57;8.20;99.90
3005;DHT22;1512;51.486;6.610;2023-12-20T19:52:06;8.20;99.90
3005;DHT22;1512;51.486;6.610;2023-12-20T19:56:15;8.20;99.90
3005;DHT22;1512;51.486;6.610;2023-12-20T20:00:23;8.20;99.90
3005;DHT22;1512;51.486;6.610;2023-12-20T20:04:32;8.20;99.90
3005;DHT22;1512;51.486;6.610;2023-12-20T20:08:41;8.20;99.90
3005;DHT22;1512;51.486;6.610;2023-12-20T20:12:49;8.20;99.90
3005;DHT22;1512;51.486;6.610;2023-12-20T20:16:59;8.20;99.90
3005;DHT22;1512;51.486;6.610;2023-12-20T20:21:09;8.20;99.90
3005;DHT22;1512;51.486;6.610;2023-12-20T20:25:19;8.10;99.90
3005;DHT22;1512;51.486;6.610;2023-12-20T20:29:27;8.10;99.90
3005;DHT22;1512;51.486;6.610;2023-12-20T20:33:36;8.10;99.90
3005;DHT22;1512;51.486;6.610;2023-12-20T20:37:45;8.10;99.90
3005;DHT22;1512;51.486;6.610;2023-12-20T20:41:54;8.10;99.90
3005;DHT22;1512;51.486;6.610;2023-12-20T20:46:02;8.20;99.90
3005;DHT22;1512;51.486;6.610;2023-12-20T20:50:11;8.20;99.90
3005;DHT22;1512;51.486;6.610;2023-12-20T20:54:20;8.20;99.90
3005;DHT22;1512;51.486;6.610;2023-12-20T20:58:29;8.20;99.90
3005;DHT22;1512;51.486;6.610;2023-12-20T21:02:39;8.20;99.90
3005;DHT22;1512;51.486;6.610;2023-12-20T21:06:48;8.30;99.90
3005;DHT22;1512;51.486;6.610;2023-12-20T21:10:57;8.30;99.90
3005;DHT22;1512;51.486;6.610;2023-12-20T21:15:07;8.30;99.90
3005;DHT22;1512;51.486;6.610;2023-12-20T21:19:17;8.30;99.90
3005;DHT22;1512;51.486;6.610;2023-12-20T21:23:26;8.30;99.90
3005;DHT22;1512;51.486;6.610;2023-12-20T21:27:35;8.30;99.90
3005;DHT22;1512;51.486;6.610;2023-12-20T21:31:46;8.30;99.90
3005;DHT22;1512;51.486;6.610;2023-12-20T21:35:55;8.30;99.90
3005;DHT22;1512;51.486;6.610;2023-12-20T21:40:04;8.30;99.90
3005;DHT22;1512;51.486;6.610;2023-12-20T21:44:13;8.30;99.90
3005;DHT22;1512;51.486;6.610;2023-12-20T21:48:41;8.30;99.90
3005;DHT22;1512;51.486;6.610;2023-12-20T21:52:50;8.30;99.90
3005;DHT22;1512;51.486;6.610;2023-12-20T21:56:59;8.30;99.90
3005;DHT22;1512;51.486;6.610;2023-12-20T22:01:08;8.30;99.90
3005;DHT22;1512;51.486;6.610;2023-12-20T22:05:18;8.30;99.90
3005;DHT22;1512;51.486;6.610;2023-12-20T22:09:27;8.30;99.90
3005;DHT22;1512;51.486;6.610;2023-12-20T22:13:35;8.30;99.90
3005;DHT22;1512;51.486;6.610;2023-12-20T22:17:44;8.30;99.90
3005;DHT22;1512;51.486;6.610;2023-12-20T22:21:53;8.20;99.90
3005;DHT22;1512;51.486;6.610;2023-12-20T22:26:02;8.20;99.90
3005;DHT22;1512;51.486;6.610;2023-12-20T22:30:13;8.30;99.90
3005;DHT22;1512;51.486;6.610;2023-12-20T22:34:22;8.30;99.90
3005;DHT22;1512;51.486;6.610;2023-12-20T22:38:30;8.30;99.90
3005;DHT22;1512;51.486;6.610;2023-12-20T22:42:40;8.30;99.90
3005;DHT22;1512;51.486;6.610;2023-12-20T22:46:49;8.30;99.90
3005;DHT22;1512;51.486;6.610;2023-12-20T22:50:57;8.40;99.90
3005;DHT22;1512;51.486;6.610;2023-12-20T22:55:06;8.40;99.90
3005;DHT22;1512;51.486;6.610;2023-12-20T22:59:15;8.40;99.90
3005;DHT22;1512;51.486;6.610;2023-12-20T23:03:24;8.40;99.90
3005;DHT22;1512;51.486;6.610;2023-12-20T23:07:33;8.50;99.90
3005;DHT22;1512;51.486;6.610;2023-12-20T23:11:42;8.50;99.90
3005;DHT22;1512;51.486;6.610;2023-12-20T23:15:50;8.50;99.90
3005;DHT22;1512;51.486;6.610;2023-12-20T23:19:59;8.50;99.90
3005;DHT22;1512;51.486;6.610;2023-12-20T23:24:08;8.50;99.90
3005;DHT22;1512;51.486;6.610;2023-12-20T23:28:17;8.50;99.90
3005;DHT22;1512;51.486;6.610;2023-12-20T23:32:25;8.50;99.90
3005;DHT22;1512;51.486;6.610;2023-12-20T23:36:34;8.60;99.90
3005;DHT22;1512;51.486;6.610;2023-12-20T23:40:43;8.60;99.90
3005;DHT22;1512;51.486;6.610;2023-12-20T23:44:52;8.60;99.90
3005;DHT22;1512;51.486;6.610;2023-12-20T23:49:01;8.60;99.90
3005;DHT22;1512;51.486;6.610;2023-12-20T23:53:09;8.70;99.90
3005;DHT22;1512;51.486;6.610;2023-12-20T23:57:18;8.70;99.90
